Terminal Aerodrome Forecast
Issued by NWS

Home | Current Version | Previous Version | Text Only | Print | Product List | Glossary On
Versions: 1 2 3 4 5 6 7 8 9 10 11 12 13 14 15 16 17 18 19 20 21 22 23
340
FTUS43 KJKL 241120
TAFSME
TAF
KSME 241120Z 2412/2512 00000KT 3SM BR VCSH OVC002
     FM241300 00000KT 3SM -SHRA BR OVC025
     FM241600 VRB03KT 3SM SHRA BR VCTS OVC025CB
     FM242300 26008KT P6SM VCSH OVC025=

USA.gov is the U.S. government's official web portal to all federal, state and local government web resources and services.